createdAt,value
2018-11-26T00:01:57.898Z,14.20
2018-11-26T00:04:25.596Z,16.47
2018-11-26T00:06:53.569Z,15.73
2018-11-26T00:09:21.248Z,16.70
2018-11-26T00:11:48.953Z,17.37
2018-11-26T00:14:16.823Z,15.50
2018-11-26T00:16:44.482Z,15.87
2018-11-26T00:19:12.100Z,16.73
2018-11-26T00:21:40.538Z,14.47
2018-11-26T00:24:08.185Z,16.83
2018-11-26T00:26:49.098Z,13.63
2018-11-26T00:29:16.896Z,14.67
2018-11-26T00:31:44.564Z,17.30
2018-11-26T00:34:12.392Z,14.47
2018-11-26T00:36:40.069Z,15.47
2018-11-26T00:39:09.433Z,16.70
2018-11-26T00:41:37.205Z,17.67
2018-11-26T00:44:05.510Z,14.37
2018-11-26T00:46:33.197Z,15.17
2018-11-26T00:49:00.974Z,16.50
2018-11-26T00:51:28.672Z,17.00
2018-11-26T00:53:56.408Z,15.60
2018-11-26T00:56:24.161Z,17.83
2018-11-26T00:58:51.814Z,18.40
2018-11-26T01:01:19.447Z,16.23
2018-11-26T01:03:47.356Z,19.13
2018-11-26T01:06:15.008Z,18.93
2018-11-26T01:08:42.648Z,17.77
2018-11-26T01:11:10.573Z,18.83
2018-11-26T01:13:38.241Z,19.97
2018-11-26T01:16:05.906Z,21.17
2018-11-26T01:18:33.833Z,22.03
2018-11-26T01:21:02.344Z,23.67
2018-11-26T01:23:30.070Z,24.87
2018-11-26T01:25:58.010Z,21.13
2018-11-26T01:28:25.646Z,25.83
2018-11-26T01:30:53.312Z,27.50
2018-11-26T01:33:21.841Z,26.97
2018-11-26T01:35:49.487Z,25.50
2018-11-26T01:38:17.105Z,30.73
2018-11-26T01:40:47.703Z,26.10
2018-11-26T01:43:15.482Z,28.27
2018-11-26T01:45:43.134Z,29.03
2018-11-26T01:48:10.722Z,33.57
2018-11-26T01:50:38.441Z,28.20
2018-11-26T01:53:06.712Z,25.27
2018-11-26T01:55:34.809Z,29.53
2018-11-26T01:58:02.551Z,29.33
2018-11-26T02:00:30.217Z,27.77
2018-11-26T02:02:57.902Z,27.37
2018-11-26T02:05:25.802Z,30.23
2018-11-26T02:07:53.531Z,30.10
2018-11-26T02:10:21.187Z,31.10
2018-11-26T02:12:49.415Z,30.97
2018-11-26T02:15:39.968Z,28.80
2018-11-26T02:18:08.498Z,30.17
2018-11-26T02:20:36.145Z,31.33
2018-11-26T02:23:03.805Z,33.93
2018-11-26T02:25:31.527Z,30.80
2018-11-26T02:27:59.148Z,32.07
2018-11-26T02:30:26.913Z,36.20
2018-11-26T02:32:54.772Z,36.33
2018-11-26T02:35:22.448Z,35.00
2018-11-26T02:37:51.027Z,34.87
2018-11-26T02:40:21.649Z,36.53
2018-11-26T02:42:49.497Z,32.93
2018-11-26T02:45:17.168Z,32.83
2018-11-26T02:47:45.007Z,38.30
2018-11-26T02:50:12.602Z,36.57
2018-11-26T02:52:40.212Z,37.90
2018-11-26T02:55:08.113Z,33.20
2018-11-26T02:57:35.773Z,34.43
2018-11-26T03:00:05.046Z,38.00
2018-11-26T03:02:33.111Z,39.73
2018-11-26T03:05:00.752Z,35.53
2018-11-26T03:07:28.366Z,34.93
2018-11-26T03:09:56.297Z,37.60
2018-11-26T03:12:23.941Z,36.07
2018-11-26T03:14:51.597Z,38.00
2018-11-26T03:17:20.028Z,38.53
2018-11-26T03:19:47.656Z,34.57
2018-11-26T03:22:15.318Z,38.73
2018-11-26T03:24:43.196Z,35.30
2018-11-26T03:27:10.891Z,35.00
2018-11-26T03:29:38.739Z,33.50
2018-11-26T03:32:06.400Z,34.93
2018-11-26T03:34:34.000Z,31.10
2018-11-26T03:37:01.952Z,31.23
2018-11-26T03:39:29.568Z,31.63
2018-11-26T03:41:57.229Z,33.13
2018-11-26T03:44:25.159Z,33.60
2018-11-26T03:46:52.804Z,30.93
2018-11-26T03:49:20.271Z,32.23
2018-11-26T03:51:48.149Z,35.13
2018-11-26T03:54:15.797Z,29.93
2018-11-26T03:56:43.431Z,29.77
2018-11-26T03:59:11.423Z,34.50
2018-11-26T04:01:39.129Z,30.60
2018-11-26T04:04:06.777Z,28.50
2018-11-26T04:06:34.554Z,31.77
2018-11-26T04:09:02.235Z,31.60
2018-11-26T04:11:29.880Z,32.23
2018-11-26T04:13:57.996Z,33.03
2018-11-26T04:16:25.957Z,30.07
2018-11-26T04:18:53.601Z,33.33
2018-11-26T04:21:21.524Z,34.07
2018-11-26T04:23:49.873Z,33.13
2018-11-26T04:26:17.568Z,29.83
2018-11-26T04:28:45.621Z,28.97
2018-11-26T04:31:13.270Z,32.27
2018-11-26T04:33:40.951Z,34.10
2018-11-26T04:36:15.560Z,29.83
2018-11-26T04:38:43.186Z,28.77
2018-11-26T04:41:10.826Z,30.67
2018-11-26T04:43:38.799Z,30.53
2018-11-26T04:46:06.445Z,31.33
2018-11-26T04:48:34.397Z,35.10
2018-11-26T04:51:02.307Z,34.33
2018-11-26T04:53:30.603Z,33.60
2018-11-26T04:55:58.309Z,31.17
2018-11-26T04:58:26.019Z,32.37
2018-11-26T05:00:53.783Z,34.30
2018-11-26T05:03:21.388Z,27.80
2018-11-26T05:05:49.146Z,29.97
2018-11-26T05:08:16.806Z,30.73
2018-11-26T05:10:44.508Z,31.73
2018-11-26T05:13:12.435Z,28.73
2018-11-26T05:15:40.064Z,33.57
2018-11-26T05:18:07.756Z,33.17
2018-11-26T05:20:35.627Z,33.37
2018-11-26T05:23:03.267Z,33.53
2018-11-26T05:25:30.903Z,33.93
2018-11-26T05:27:58.778Z,33.70
2018-11-26T05:30:26.401Z,31.63
2018-11-26T05:32:54.012Z,31.17
2018-11-26T05:35:21.964Z,27.63
2018-11-26T05:37:49.648Z,31.43
2018-11-26T05:40:17.543Z,30.73
2018-11-26T05:42:45.570Z,28.57
2018-11-26T05:45:14.120Z,29.17
2018-11-26T05:47:41.813Z,29.63
2018-11-26T05:50:11.048Z,30.97
2018-11-26T05:52:39.249Z,28.77
2018-11-26T05:55:11.484Z,28.03
2018-11-26T05:57:39.105Z,31.03
2018-11-26T06:00:10.804Z,30.33
2018-11-26T06:02:38.511Z,31.13
2018-11-26T06:05:06.521Z,30.17
2018-11-26T06:07:34.233Z,29.37
2018-11-26T06:10:02.026Z,33.03
2018-11-26T06:12:30.024Z,32.57
2018-11-26T06:15:11.946Z,33.93
2018-11-26T06:17:40.028Z,30.50
2018-11-26T06:20:26.162Z,34.43
2018-11-26T06:22:54.616Z,27.63
2018-11-26T06:25:53.223Z,30.87
2018-11-26T06:28:36.212Z,33.23
2018-11-26T06:31:18.372Z,32.70
2018-11-26T06:33:46.185Z,33.73
2018-11-26T06:36:13.910Z,33.43
2018-11-26T06:38:41.619Z,31.77
2018-11-26T06:41:09.679Z,32.00
2018-11-26T06:43:37.393Z,33.30
2018-11-26T06:46:06.418Z,33.50
2018-11-26T06:48:34.669Z,29.40
2018-11-26T06:51:02.188Z,34.37
2018-11-26T06:53:29.853Z,32.50
2018-11-26T06:55:57.906Z,31.13
2018-11-26T06:58:25.529Z,32.40
2018-11-26T07:00:53.181Z,33.00
2018-11-26T07:03:21.125Z,30.63
2018-11-26T07:05:48.830Z,30.97
2018-11-26T07:08:16.912Z,35.03
2018-11-26T07:10:44.577Z,33.57
2018-11-26T07:13:12.195Z,34.13
2018-11-26T07:15:40.512Z,32.13
2018-11-26T07:18:08.200Z,35.80
2018-11-26T07:20:36.836Z,35.40
2018-11-26T07:23:05.042Z,34.17
2018-11-26T07:25:32.760Z,36.93
2018-11-26T07:28:00.633Z,34.70
2018-11-26T07:30:29.625Z,35.50
2018-11-26T07:32:58.138Z,38.40
2018-11-26T07:35:25.829Z,40.00
2018-11-26T07:37:53.698Z,34.20
2018-11-26T07:40:22.020Z,35.17
2018-11-26T07:42:58.549Z,33.20
2018-11-26T07:45:26.236Z,36.57
2018-11-26T07:47:53.895Z,38.00
2018-11-26T07:50:21.750Z,36.30
2018-11-26T07:52:49.796Z,35.23
2018-11-26T07:55:18.580Z,38.33
2018-11-26T07:57:47.707Z,35.73
2018-11-26T08:00:16.359Z,37.23
2018-11-26T08:02:44.433Z,37.10
2018-11-26T08:05:15.338Z,36.53
2018-11-26T08:07:42.975Z,38.97
2018-11-26T08:10:13.818Z,37.43
2018-11-26T08:12:42.089Z,36.33
2018-11-26T08:15:13.115Z,38.63
2018-11-26T08:17:41.009Z,36.57
2018-11-26T08:20:09.332Z,39.97
2018-11-26T08:22:37.034Z,38.00
2018-11-26T08:25:11.913Z,40.27
2018-11-26T08:27:40.006Z,38.70
2018-11-26T08:30:17.612Z,40.07
2018-11-26T08:32:48.280Z,38.07
2018-11-26T08:35:16.363Z,38.30
2018-11-26T08:37:49.798Z,40.53
2018-11-26T08:40:23.168Z,40.53
2018-11-26T08:42:55.617Z,41.40
2018-11-26T08:45:28.809Z,43.97
2018-11-26T08:48:03.080Z,34.87
2018-11-26T08:50:30.681Z,40.23
2018-11-26T08:52:58.385Z,35.23
2018-11-26T08:55:26.417Z,36.90
2018-11-26T08:57:54.096Z,34.73
2018-11-26T09:00:21.765Z,36.07
2018-11-26T09:03:00.352Z,38.50
2018-11-26T09:05:36.011Z,34.07
2018-11-26T09:08:03.747Z,35.13
2018-11-26T09:10:31.390Z,33.20
2018-11-26T09:12:59.001Z,33.43
2018-11-26T09:15:26.986Z,29.60
2018-11-26T09:17:55.275Z,28.27
2018-11-26T09:20:23.086Z,31.07
2018-11-26T09:22:51.005Z,32.27
2018-11-26T09:25:18.825Z,37.50
2018-11-26T09:27:46.496Z,30.77
2018-11-26T09:30:14.628Z,29.93
2018-11-26T09:32:42.646Z,31.67
2018-11-26T09:35:12.557Z,26.23
2018-11-26T09:37:40.368Z,29.50
2018-11-26T09:40:09.817Z,32.37
2018-11-26T09:42:37.463Z,28.80
2018-11-26T09:45:07.827Z,34.03
2018-11-26T09:47:35.424Z,32.77
2018-11-26T09:50:03.257Z,32.33
2018-11-26T09:52:31.104Z,29.90
2018-11-26T09:54:58.732Z,24.17
2018-11-26T09:57:26.422Z,27.87
2018-11-26T09:59:54.395Z,30.20
2018-11-26T10:02:22.123Z,28.33
2018-11-26T10:04:49.744Z,25.70
2018-11-26T10:07:17.703Z,26.37
2018-11-26T10:09:45.980Z,22.80
2018-11-26T10:12:13.637Z,26.50
2018-11-26T10:14:41.671Z,24.43
2018-11-26T10:17:09.367Z,24.77
2018-11-26T10:19:37.087Z,25.20
2018-11-26T10:22:05.131Z,26.17
2018-11-26T10:24:32.906Z,22.67
2018-11-26T10:27:01.509Z,24.10
2018-11-26T10:29:29.400Z,22.13
2018-11-26T10:31:57.052Z,25.93
2018-11-26T10:34:24.939Z,24.27
2018-11-26T10:36:53.052Z,26.23
2018-11-26T10:39:20.642Z,25.40
2018-11-26T10:41:48.284Z,24.47
2018-11-26T10:44:15.966Z,25.40
2018-11-26T10:46:43.630Z,23.33
2018-11-26T10:49:11.260Z,20.97
2018-11-26T10:51:39.046Z,23.83
2018-11-26T10:54:06.706Z,23.07
2018-11-26T10:56:34.316Z,21.67
2018-11-26T10:59:02.216Z,21.23
2018-11-26T11:01:35.741Z,21.43
2018-11-26T11:04:03.686Z,23.80
2018-11-26T11:06:31.303Z,21.67
2018-11-26T11:08:58.972Z,20.17
2018-11-26T11:11:26.791Z,18.57
2018-11-26T11:13:54.438Z,20.53
2018-11-26T11:16:22.923Z,22.63
2018-11-26T11:18:50.640Z,21.83
2018-11-26T11:21:18.287Z,21.57
2018-11-26T11:23:46.157Z,21.33
2018-11-26T11:26:13.815Z,16.47
2018-11-26T11:28:41.492Z,15.87
2018-11-26T11:31:09.472Z,20.07
2018-11-26T11:33:37.174Z,19.40
2018-11-26T11:36:05.110Z,15.50
2018-11-26T11:38:33.080Z,16.20
2018-11-26T11:41:00.758Z,14.70
2018-11-26T11:43:28.419Z,15.63
2018-11-26T11:45:56.297Z,14.77
2018-11-26T11:48:23.936Z,15.93
2018-11-26T11:50:51.631Z,13.47
2018-11-26T11:53:19.730Z,16.63
2018-11-26T11:55:47.417Z,15.27
2018-11-26T11:58:15.043Z,18.17
2018-11-26T12:00:44.763Z,17.83
2018-11-26T12:03:17.614Z,17.00
2018-11-26T12:05:45.555Z,18.30
2018-11-26T12:08:13.587Z,15.80
2018-11-26T12:10:41.348Z,16.50
2018-11-26T12:13:10.462Z,15.27
2018-11-26T12:15:39.579Z,19.30
2018-11-26T12:18:07.911Z,18.83
2018-11-26T12:20:36.138Z,18.20
2018-11-26T12:23:04.009Z,16.27
2018-11-26T12:25:31.659Z,16.47
2018-11-26T12:27:59.661Z,18.43
2018-11-26T12:30:27.673Z,18.07
2018-11-26T12:32:55.334Z,19.90
2018-11-26T12:35:23.068Z,18.03
2018-11-26T12:37:50.956Z,17.27
2018-11-26T12:40:19.610Z,19.20
2018-11-26T12:42:48.125Z,21.53
2018-11-26T12:45:17.317Z,20.73
2018-11-26T12:47:44.937Z,21.00
2018-11-26T12:50:13.200Z,19.50
2018-11-26T12:52:41.710Z,17.30
2018-11-26T12:55:13.527Z,21.93
2018-11-26T12:57:42.178Z,21.90
2018-11-26T13:00:12.876Z,24.70
2018-11-26T13:02:40.798Z,23.53
2018-11-26T13:05:16.137Z,24.37
2018-11-26T13:07:43.862Z,23.20
2018-11-26T13:10:12.676Z,20.73
2018-11-26T13:12:40.352Z,22.30
2018-11-26T13:15:12.318Z,23.90
2018-11-26T13:17:39.983Z,26.67
2018-11-26T13:20:10.410Z,24.70
2018-11-26T13:22:38.169Z,25.00
2018-11-26T13:25:07.597Z,23.30
2018-11-26T13:27:35.829Z,23.70
2018-11-26T13:30:04.265Z,25.73
2018-11-26T13:32:31.995Z,21.30
2018-11-26T13:34:59.787Z,25.20
2018-11-26T13:37:27.430Z,24.93
2018-11-26T13:39:55.113Z,25.40
2018-11-26T13:42:23.306Z,25.67
2018-11-26T13:44:55.079Z,25.93
2018-11-26T13:47:27.562Z,24.40
2018-11-26T13:49:55.182Z,28.33
2018-11-26T13:52:35.685Z,28.90
2018-11-26T13:55:34.134Z,27.70
2018-11-26T13:58:17.892Z,22.93
2018-11-26T14:01:08.621Z,29.53
2018-11-26T14:03:36.505Z,31.33
2018-11-26T14:06:04.322Z,29.73
2018-11-26T14:08:31.966Z,32.17
2018-11-26T14:11:00.680Z,30.20
2018-11-26T14:13:28.312Z,30.63
2018-11-26T14:15:56.017Z,26.07
2018-11-26T14:18:24.101Z,27.77
2018-11-26T14:20:51.765Z,26.10
2018-11-26T14:23:19.637Z,24.43
2018-11-26T14:25:47.451Z,23.27
2018-11-26T14:28:15.089Z,19.33
2018-11-26T14:30:42.812Z,19.43
2018-11-26T14:33:10.710Z,19.07
2018-11-26T14:35:38.384Z,19.63
2018-11-26T14:38:07.248Z,16.27
2018-11-26T14:40:41.923Z,17.03
2018-11-26T14:43:09.853Z,19.43
2018-11-26T14:45:37.525Z,13.63
2018-11-26T14:48:05.868Z,16.13
2018-11-26T14:50:34.400Z,15.90
2018-11-26T14:53:03.987Z,18.20
2018-11-26T14:55:33.247Z,16.67
2018-11-26T14:58:00.989Z,15.43
2018-11-26T15:00:28.626Z,13.80
2018-11-26T15:02:56.550Z,15.63
2018-11-26T15:05:24.191Z,13.53
2018-11-26T15:07:51.885Z,15.60
2018-11-26T15:10:20.774Z,12.87
2018-11-26T15:12:48.570Z,14.60
2018-11-26T15:15:19.530Z,15.33
2018-11-26T15:17:47.559Z,15.50
2018-11-26T15:20:17.309Z,16.13
2018-11-26T15:22:44.969Z,18.40
2018-11-26T15:25:16.297Z,18.23
2018-11-26T15:27:44.027Z,19.40
2018-11-26T15:30:13.764Z,23.10
2018-11-26T15:32:41.652Z,19.57
2018-11-26T15:35:14.001Z,19.07
2018-11-26T15:37:41.722Z,18.97
2018-11-26T15:40:10.354Z,21.37
2018-11-26T15:42:38.520Z,22.07
2018-11-26T15:45:25.946Z,19.37
2018-11-26T15:47:55.013Z,18.33
2018-11-26T15:50:22.660Z,17.93
2018-11-26T15:52:52.677Z,17.43
2018-11-26T15:55:21.562Z,15.80
2018-11-26T15:57:49.743Z,18.30
2018-11-26T16:00:19.230Z,15.13
2018-11-26T16:02:47.001Z,16.73
2018-11-26T16:05:17.931Z,16.27
2018-11-26T16:07:46.139Z,18.50
2018-11-26T16:10:14.624Z,17.23
2018-11-26T16:12:43.210Z,19.00
2018-11-26T16:15:13.471Z,14.63
2018-11-26T16:17:41.530Z,16.90
2018-11-26T16:20:10.814Z,19.37
2018-11-26T16:22:38.517Z,15.90
2018-11-26T16:25:09.290Z,17.13
2018-11-26T16:27:36.949Z,16.23
2018-11-26T16:30:06.900Z,14.70
2018-11-26T16:32:34.574Z,17.10
2018-11-26T16:35:02.231Z,15.43
2018-11-26T16:37:29.862Z,17.00
2018-11-26T16:39:57.605Z,16.53
2018-11-26T16:42:25.291Z,17.43
2018-11-26T16:44:53.061Z,15.77
2018-11-26T16:47:21.003Z,17.10
2018-11-26T16:49:48.723Z,15.97
2018-11-26T16:52:16.385Z,16.17
2018-11-26T16:54:44.114Z,17.77
2018-11-26T16:57:12.826Z,15.37
2018-11-26T16:59:40.493Z,17.27
2018-11-26T17:02:08.434Z,14.77
2018-11-26T17:04:36.046Z,17.73
2018-11-26T17:07:04.588Z,17.80
2018-11-26T17:09:32.253Z,18.57
2018-11-26T17:11:59.898Z,16.50
2018-11-26T17:14:27.583Z,15.53
2018-11-26T17:16:55.207Z,17.67
2018-11-26T17:19:23.122Z,15.23
2018-11-26T17:21:50.784Z,14.80
2018-11-26T17:24:18.422Z,16.67
2018-11-26T17:26:46.332Z,15.97
2018-11-26T17:29:13.984Z,16.70
2018-11-26T17:31:41.687Z,15.70
2018-11-26T17:34:09.369Z,17.90
2018-11-26T17:36:37.104Z,16.97
2018-11-26T17:39:07.221Z,20.17
2018-11-26T17:41:34.948Z,17.30
2018-11-26T17:44:02.635Z,19.47
2018-11-26T17:46:30.302Z,19.30
2018-11-26T17:48:58.319Z,18.87
2018-11-26T17:51:26.052Z,19.50
2018-11-26T17:53:53.739Z,18.97
2018-11-26T17:56:22.011Z,16.77
2018-11-26T17:58:49.632Z,16.87
2018-11-26T18:01:26.862Z,18.43
2018-11-26T18:03:54.550Z,18.43
2018-11-26T18:06:23.841Z,18.80
2018-11-26T18:08:51.721Z,18.53
2018-11-26T18:11:19.345Z,16.03
2018-11-26T18:13:46.954Z,18.13
2018-11-26T18:16:14.928Z,18.63
2018-11-26T18:18:42.556Z,17.00
2018-11-26T18:21:10.309Z,17.70
2018-11-26T18:23:38.236Z,16.53
2018-11-26T18:26:05.994Z,18.87
2018-11-26T18:28:33.639Z,17.57
2018-11-26T18:31:01.550Z,17.33
2018-11-26T18:33:29.179Z,14.27
2018-11-26T18:35:56.948Z,16.07
2018-11-26T18:38:25.534Z,14.70
2018-11-26T18:40:53.183Z,16.37
2018-11-26T18:43:20.802Z,14.47
2018-11-26T18:45:48.590Z,15.30
2018-11-26T18:48:16.315Z,17.00
2018-11-26T18:50:44.038Z,14.47
2018-11-26T18:53:11.995Z,18.20
2018-11-26T18:55:40.666Z,17.70
2018-11-26T18:58:08.505Z,15.80
2018-11-26T19:00:44.103Z,15.73
2018-11-26T19:03:16.517Z,15.30
2018-11-26T19:05:44.555Z,13.67
2018-11-26T19:08:12.262Z,14.87
2018-11-26T19:10:39.943Z,13.60
2018-11-26T19:13:11.129Z,14.70
2018-11-26T19:15:40.001Z,13.40
2018-11-26T19:18:17.622Z,12.93
2018-11-26T19:20:45.294Z,15.07
2018-11-26T19:23:12.941Z,14.77
2018-11-26T19:25:40.922Z,15.93
2018-11-26T19:28:08.610Z,14.47
2018-11-26T19:30:36.338Z,12.80
2018-11-26T19:33:05.965Z,14.33
2018-11-26T19:35:33.678Z,14.73
2018-11-26T19:38:01.314Z,12.77
2018-11-26T19:40:29.002Z,14.47
2018-11-26T19:42:56.689Z,13.50
2018-11-26T19:45:24.534Z,13.17
2018-11-26T19:47:52.651Z,12.60
2018-11-26T19:50:20.837Z,14.67
2018-11-26T19:52:50.040Z,14.73
2018-11-26T19:55:20.118Z,13.47
2018-11-26T19:57:47.811Z,14.97
2018-11-26T20:00:16.260Z,17.83
2018-11-26T20:02:46.890Z,14.80
2018-11-26T20:05:20.568Z,18.33
2018-11-26T20:07:48.425Z,18.03
2018-11-26T20:10:16.122Z,18.77
2018-11-26T20:12:43.822Z,15.87
2018-11-26T20:15:14.736Z,16.07
2018-11-26T20:17:42.734Z,14.30
2018-11-26T20:20:10.594Z,13.33
2018-11-26T20:22:38.870Z,17.47
2018-11-26T20:25:08.862Z,16.10
2018-11-26T20:27:36.517Z,15.30
2018-11-26T20:30:06.731Z,13.77
2018-11-26T20:32:34.550Z,15.03
2018-11-26T20:35:03.157Z,16.17
2018-11-26T20:37:30.851Z,15.80
2018-11-26T20:39:58.607Z,18.30
2018-11-26T20:42:26.261Z,15.53
2018-11-26T20:44:53.933Z,15.87
2018-11-26T20:47:21.626Z,15.97
2018-11-26T20:49:48.934Z,16.20
2018-11-26T20:52:16.942Z,18.10
2018-11-26T20:54:44.680Z,18.57
2018-11-26T20:57:12.395Z,13.70
2018-11-26T20:59:40.138Z,13.67
2018-11-26T21:02:07.838Z,16.30
2018-11-26T21:04:35.511Z,14.53
2018-11-26T21:07:04.493Z,16.33
2018-11-26T21:09:32.322Z,15.50
2018-11-26T21:12:00.328Z,15.30
2018-11-26T21:14:28.435Z,17.90
2018-11-26T21:16:56.342Z,15.93
2018-11-26T21:19:24.113Z,12.73
2018-11-26T21:21:51.998Z,14.43
2018-11-26T21:24:19.694Z,13.03
2018-11-26T21:26:47.360Z,14.00
2018-11-26T21:29:15.318Z,14.17
2018-11-26T21:31:42.983Z,13.90
2018-11-26T21:34:10.842Z,14.73
2018-11-26T21:36:39.282Z,14.27
2018-11-26T21:39:09.322Z,14.70
2018-11-26T21:41:37.306Z,13.87
2018-11-26T21:44:05.702Z,15.17
2018-11-26T21:46:33.350Z,17.70
2018-11-26T21:49:01.209Z,16.80
2018-11-26T21:51:29.018Z,16.03
2018-11-26T21:53:56.660Z,15.73
2018-11-26T21:56:25.893Z,15.50
2018-11-26T21:58:54.066Z,16.23
2018-11-26T22:01:21.719Z,15.87
2018-11-26T22:03:49.451Z,15.27
2018-11-26T22:06:17.372Z,19.13
2018-11-26T22:08:45.075Z,16.10
2018-11-26T22:11:12.858Z,16.60
2018-11-26T22:13:40.564Z,20.63
2018-11-26T22:16:08.441Z,18.33
2018-11-26T22:18:36.425Z,19.87
2018-11-26T22:21:04.750Z,19.10
2018-11-26T22:23:32.398Z,20.50
2018-11-26T22:26:00.270Z,18.10
2018-11-26T22:28:27.914Z,16.73
2018-11-26T22:30:55.616Z,16.50
2018-11-26T22:33:23.807Z,16.73
2018-11-26T22:35:51.442Z,17.90
2018-11-26T22:38:19.134Z,20.77
2018-11-26T22:40:46.834Z,18.27
2018-11-26T22:43:14.490Z,17.20
2018-11-26T22:45:42.231Z,15.87
2018-11-26T22:48:11.151Z,18.80
2018-11-26T22:50:39.966Z,19.13
2018-11-26T22:53:08.377Z,17.77
2018-11-26T22:55:36.032Z,16.23
2018-11-26T22:58:04.484Z,16.47
2018-11-26T23:00:41.270Z,16.63
2018-11-26T23:03:10.113Z,14.43
2018-11-26T23:05:37.795Z,16.07
2018-11-26T23:08:06.150Z,15.50
2018-11-26T23:10:33.842Z,17.90
2018-11-26T23:13:01.498Z,18.17
2018-11-26T23:15:29.390Z,18.07
2018-11-26T23:17:57.379Z,14.33
2018-11-26T23:20:25.038Z,14.07
2018-11-26T23:22:52.924Z,13.03
2018-11-26T23:25:20.590Z,16.70
2018-11-26T23:27:48.314Z,14.33
2018-11-26T23:30:21.312Z,16.30
2018-11-26T23:32:50.457Z,14.07
2018-11-26T23:35:18.360Z,13.40
2018-11-26T23:37:46.013Z,14.13
2018-11-26T23:40:13.791Z,14.50
2018-11-26T23:42:41.682Z,15.90
2018-11-26T23:45:11.387Z,14.63
2018-11-26T23:47:39.113Z,16.13
2018-11-26T23:50:08.988Z,16.00
2018-11-26T23:52:37.307Z,13.57
2018-11-26T23:55:07.357Z,14.53
2018-11-26T23:57:35.360Z,13.17
